createdAt,value
2022-09-01T00:01:48.049Z,11.13
2022-09-01T00:04:20.365Z,10.25
2022-09-01T00:06:48.483Z,10.27
2022-09-01T00:09:18.562Z,11.82
2022-09-01T00:11:50.624Z,10.50
2022-09-01T00:14:29.881Z,10.77
2022-09-01T00:17:02.701Z,12.05
2022-09-01T00:21:57.083Z,11.38
2022-09-01T00:24:26.067Z,11.70
2022-09-01T00:26:53.576Z,10.18
2022-09-01T00:29:20.347Z,11.70
2022-09-01T00:31:47.879Z,10.95
2022-09-01T00:34:15.300Z,9.73
2022-09-01T00:36:42.296Z,10.25
2022-09-01T00:39:09.695Z,11.82
2022-09-01T00:41:39.632Z,12.50
2022-09-01T00:44:11.864Z,12.00
2022-09-01T00:46:47.664Z,12.52
2022-09-01T00:49:34.993Z,11.68
2022-09-01T00:52:09.860Z,11.95
2022-09-01T00:54:41.519Z,14.27
2022-09-01T00:59:39.373Z,12.60
2022-09-01T01:02:06.169Z,13.38
2022-09-01T01:04:32.636Z,13.27
2022-09-01T01:07:03.989Z,12.68
2022-09-01T01:09:36.085Z,12.48
2022-09-01T01:12:05.177Z,12.57
2022-09-01T01:14:32.227Z,13.70
2022-09-01T01:17:00.513Z,12.82
2022-09-01T01:20:05.676Z,13.00
2022-09-01T01:23:05.372Z,13.20
2022-09-01T01:28:18.303Z,12.10
2022-09-01T01:31:03.085Z,13.02
2022-09-01T01:33:42.602Z,13.15
2022-09-01T01:36:14.306Z,12.73
2022-09-01T01:38:44.004Z,13.30
2022-09-01T01:41:15.072Z,13.35
2022-09-01T01:43:41.928Z,15.63
2022-09-01T01:46:10.166Z,14.27
2022-09-01T01:48:40.879Z,15.73
2022-09-01T01:51:08.628Z,17.17
2022-09-01T01:53:35.416Z,18.55
2022-09-01T01:56:02.765Z,19.10
2022-09-01T01:58:34.799Z,22.17
2022-09-01T02:01:10.679Z,23.40
2022-09-01T02:03:38.516Z,26.00
2022-09-01T02:06:11.785Z,26.35
2022-09-01T02:08:40.679Z,25.70
2022-09-01T02:11:08.589Z,26.63
2022-09-01T02:13:35.171Z,30.05
2022-09-01T02:16:05.742Z,29.77
2022-09-01T02:18:38.628Z,29.27
2022-09-01T02:21:15.170Z,27.52
2022-09-01T02:23:43.167Z,25.75
2022-09-01T02:26:16.548Z,26.33
2022-09-01T02:28:50.905Z,26.73
2022-09-01T02:31:20.906Z,26.30
2022-09-01T02:33:48.584Z,27.70
2022-09-01T02:36:19.172Z,27.33
2022-09-01T02:38:53.155Z,28.15
2022-09-01T02:41:23.610Z,28.60
2022-09-01T02:43:50.721Z,28.58
2022-09-01T02:46:20.239Z,29.02
2022-09-01T02:48:51.334Z,29.00
2022-09-01T02:51:20.312Z,30.55
2022-09-01T02:53:53.044Z,29.88
2022-09-01T02:56:22.757Z,29.65
2022-09-01T02:58:53.209Z,28.98
2022-09-01T03:01:29.179Z,30.73
2022-09-01T03:04:00.367Z,29.65
2022-09-01T03:06:28.108Z,28.90
2022-09-01T03:09:00.095Z,29.02
2022-09-01T03:11:29.914Z,28.42
2022-09-01T03:13:56.646Z,28.38
2022-09-01T03:16:23.587Z,26.08
2022-09-01T03:18:51.601Z,27.02
2022-09-01T03:21:19.681Z,26.70
2022-09-01T03:23:49.779Z,29.15
2022-09-01T03:26:19.338Z,29.05
2022-09-01T03:28:46.539Z,28.15
2022-09-01T03:31:13.952Z,31.75
2022-09-01T03:33:42.090Z,31.25
2022-09-01T03:36:19.329Z,31.80
2022-09-01T03:38:48.780Z,33.35
2022-09-01T03:41:18.565Z,32.25
2022-09-01T03:43:47.333Z,32.22
2022-09-01T03:46:21.274Z,34.42
2022-09-01T03:48:50.756Z,35.75
2022-09-01T03:51:20.616Z,34.25
2022-09-01T03:53:47.302Z,36.28
2022-09-01T03:56:15.237Z,33.10
2022-09-01T03:58:46.968Z,32.45
2022-09-01T04:01:16.213Z,32.20
2022-09-01T04:03:45.517Z,30.35
2022-09-01T04:06:12.621Z,31.63
2022-09-01T04:08:40.563Z,30.13
2022-09-01T04:11:18.489Z,29.65
2022-09-01T04:13:47.299Z,28.08
2022-09-01T04:16:38.850Z,29.92
2022-09-01T04:19:15.778Z,30.10
2022-09-01T04:21:44.725Z,32.97
2022-09-01T04:24:15.524Z,33.65
2022-09-01T04:26:45.960Z,37.17
2022-09-01T04:29:13.165Z,33.38
2022-09-01T04:31:40.753Z,32.47
2022-09-01T04:34:13.893Z,31.40
2022-09-01T04:36:44.724Z,29.92
2022-09-01T04:39:12.353Z,32.78
2022-09-01T04:41:46.068Z,34.20
2022-09-01T04:44:18.868Z,35.00
2022-09-01T04:46:47.892Z,32.00
2022-09-01T04:49:19.463Z,32.70
2022-09-01T04:51:53.266Z,32.47
2022-09-01T04:54:22.517Z,34.45
2022-09-01T04:56:52.558Z,33.50
2022-09-01T04:59:23.018Z,31.95
2022-09-01T05:01:55.556Z,31.10
2022-09-01T05:04:27.289Z,28.38
2022-09-01T05:09:25.154Z,25.35
2022-09-01T05:12:15.956Z,24.45
2022-09-01T05:14:48.475Z,23.10
2022-09-01T05:17:18.677Z,21.90
2022-09-01T05:19:48.129Z,22.85
2022-09-01T05:22:17.665Z,22.55
2022-09-01T05:24:54.903Z,22.25
2022-09-01T05:27:22.788Z,23.33
2022-09-01T05:29:50.370Z,22.73
2022-09-01T05:32:17.245Z,25.60
2022-09-01T05:34:45.164Z,22.88
2022-09-01T05:37:14.459Z,20.48
2022-09-01T05:39:40.967Z,21.42
2022-09-01T05:42:08.379Z,21.38
2022-09-01T05:44:39.381Z,23.15
2022-09-01T05:47:06.352Z,25.40
2022-09-01T05:49:33.137Z,26.45
2022-09-01T05:52:02.833Z,26.75
2022-09-01T05:54:32.536Z,26.02
2022-09-01T05:57:17.314Z,25.45
2022-09-01T05:59:45.989Z,26.17
2022-09-01T06:02:17.795Z,27.20
2022-09-01T06:04:44.460Z,25.20
2022-09-01T06:07:17.507Z,25.02
2022-09-01T06:09:49.880Z,26.48
2022-09-01T06:12:20.326Z,26.10
2022-09-01T06:14:48.320Z,25.65
2022-09-01T06:17:18.532Z,25.33
2022-09-01T06:19:46.697Z,24.13
2022-09-01T06:22:13.641Z,24.40
2022-09-01T06:24:40.889Z,22.92
2022-09-01T06:27:10.480Z,24.08
2022-09-01T06:29:41.615Z,21.10
2022-09-01T06:32:10.290Z,20.45
2022-09-01T06:34:42.791Z,19.55
2022-09-01T06:37:10.839Z,19.98
2022-09-01T06:39:38.207Z,20.70
2022-09-01T06:42:06.364Z,20.40
2022-09-01T06:44:46.015Z,20.08
2022-09-01T06:47:13.005Z,19.33
2022-09-01T06:49:41.041Z,19.35
2022-09-01T06:52:16.981Z,19.45
2022-09-01T06:54:44.207Z,18.38
2022-09-01T06:59:57.897Z,18.25
2022-09-01T07:02:26.506Z,18.48
2022-09-01T07:08:22.370Z,17.80
2022-09-01T07:12:08.152Z,17.58
2022-09-01T07:16:52.312Z,16.45
2022-09-01T07:19:20.884Z,16.85
2022-09-01T07:22:08.605Z,16.75
2022-09-01T07:24:40.020Z,17.38
2022-09-01T07:27:35.603Z,15.52
2022-09-01T07:30:03.353Z,15.60
2022-09-01T07:35:22.241Z,16.15
2022-09-01T07:38:48.459Z,14.95
2022-09-01T07:44:10.253Z,13.52
2022-09-01T07:47:52.477Z,15.13
2022-09-01T07:50:24.556Z,15.10
2022-09-01T07:52:49.666Z,14.90
2022-09-01T07:55:17.293Z,14.75
2022-09-01T07:57:46.199Z,14.27
2022-09-01T08:00:15.672Z,12.68
2022-09-01T08:02:47.054Z,13.40
2022-09-01T08:05:22.309Z,14.10
2022-09-01T08:07:52.549Z,12.82
2022-09-01T08:10:21.961Z,13.63
2022-09-01T08:12:56.988Z,13.10
2022-09-01T08:15:41.802Z,13.40
2022-09-01T08:18:14.750Z,13.20
2022-09-01T08:20:47.212Z,11.90
2022-09-01T08:23:29.993Z,12.23
2022-09-01T08:25:56.536Z,12.13
2022-09-01T08:28:27.253Z,11.57
2022-09-01T08:30:55.483Z,11.57
2022-09-01T08:33:23.645Z,11.45
2022-09-01T08:35:50.310Z,11.82
2022-09-01T08:38:18.952Z,11.23
2022-09-01T08:40:56.361Z,11.55
2022-09-01T08:43:42.324Z,10.35
2022-09-01T08:46:16.735Z,10.55
2022-09-01T08:52:17.797Z,8.70
2022-09-01T08:54:58.702Z,8.90
2022-09-01T08:57:45.253Z,9.45
2022-09-01T09:00:39.485Z,8.75
2022-09-01T09:03:19.406Z,9.38
2022-09-01T09:06:14.966Z,7.82
2022-09-01T09:09:06.045Z,9.02
2022-09-01T09:11:45.095Z,7.78
2022-09-01T09:14:36.669Z,6.78
2022-09-01T09:17:04.309Z,6.63
2022-09-01T09:19:44.410Z,7.68
2022-09-01T09:22:15.387Z,6.45
2022-09-01T09:25:00.324Z,6.80
2022-09-01T09:27:37.705Z,6.35
2022-09-01T09:30:11.416Z,6.50
2022-09-01T09:33:16.078Z,6.78
2022-09-01T09:35:46.501Z,7.38
2022-09-01T09:38:21.082Z,6.32
2022-09-01T09:41:20.849Z,6.80
2022-09-01T09:44:18.509Z,6.40
2022-09-01T09:46:47.687Z,5.97
2022-09-01T09:49:34.517Z,6.80
2022-09-01T09:52:09.793Z,5.90
2022-09-01T09:54:39.170Z,5.88
2022-09-01T09:57:08.681Z,5.88
2022-09-01T10:00:00.808Z,5.57
2022-09-01T10:02:42.382Z,6.43
2022-09-01T10:05:38.909Z,5.82
2022-09-01T10:08:15.124Z,6.25
2022-09-01T10:10:44.094Z,6.15
2022-09-01T10:13:22.361Z,6.45
2022-09-01T10:15:55.910Z,5.80
2022-09-01T10:18:30.380Z,5.65
2022-09-01T10:21:08.033Z,4.95
2022-09-01T10:23:37.625Z,5.97
2022-09-01T10:26:22.789Z,5.43
2022-09-01T10:28:59.887Z,5.32
2022-09-01T10:31:29.492Z,4.63
2022-09-01T10:34:03.282Z,4.90
2022-09-01T10:36:34.677Z,5.45
2022-09-01T10:39:06.302Z,5.13
2022-09-01T10:41:59.324Z,4.63
2022-09-01T10:47:13.534Z,4.72
2022-09-01T10:49:47.125Z,4.53
2022-09-01T10:52:43.467Z,5.50
2022-09-01T10:55:23.985Z,4.40
2022-09-01T10:59:30.009Z,4.93
2022-09-01T11:01:11.239Z,4.43
2022-09-01T11:03:52.005Z,4.50
2022-09-01T11:09:41.796Z,4.30
2022-09-01T11:12:44.760Z,4.30
2022-09-01T11:15:14.056Z,5.00
2022-09-01T11:17:50.493Z,4.53
2022-09-01T11:20:40.657Z,5.10
2022-09-01T11:23:22.268Z,4.03
2022-09-01T11:28:41.587Z,4.60
2022-09-01T11:31:10.869Z,3.80
2022-09-01T11:34:03.025Z,4.05
2022-09-01T11:36:37.014Z,4.15
2022-09-01T11:39:19.216Z,4.32
2022-09-01T11:41:59.702Z,3.90
2022-09-01T11:44:38.869Z,4.22
2022-09-01T11:47:14.141Z,3.75
2022-09-01T11:49:50.069Z,3.25
2022-09-01T11:52:19.213Z,3.10
2022-09-01T11:54:48.592Z,3.08
2022-09-01T11:57:25.709Z,3.13
2022-09-01T11:59:53.233Z,3.08
2022-09-01T12:02:26.374Z,3.30
2022-09-01T12:04:55.226Z,3.80
2022-09-01T12:07:44.993Z,3.10
2022-09-01T12:10:21.798Z,4.10
2022-09-01T12:12:48.281Z,3.80
2022-09-01T12:15:24.397Z,3.78
2022-09-01T12:17:51.930Z,3.55
2022-09-01T12:20:38.480Z,3.10
2022-09-01T12:23:22.768Z,3.20
2022-09-01T12:25:50.137Z,3.17
2022-09-01T12:28:17.006Z,2.78
2022-09-01T12:30:44.641Z,2.80
2022-09-01T12:33:29.312Z,2.58
2022-09-01T12:36:14.448Z,2.60
2022-09-01T12:38:41.042Z,2.70
2022-09-01T12:41:38.959Z,2.90
2022-09-01T12:44:30.308Z,2.33
2022-09-01T12:47:00.481Z,2.75
2022-09-01T12:49:36.492Z,2.88
2022-09-01T12:52:27.916Z,2.60
2022-09-01T12:55:03.888Z,2.70
2022-09-01T12:57:37.224Z,2.10
2022-09-01T13:00:19.702Z,2.65
2022-09-01T13:02:50.871Z,2.38
2022-09-01T13:08:02.827Z,2.70
2022-09-01T13:10:44.830Z,3.00
2022-09-01T13:13:13.645Z,2.58
2022-09-01T13:15:47.929Z,2.72
2022-09-01T13:18:15.256Z,2.10
2022-09-01T13:20:42.188Z,2.30
2022-09-01T13:23:09.605Z,2.70
2022-09-01T13:25:36.073Z,2.20
2022-09-01T13:28:03.737Z,2.72
2022-09-01T13:30:30.397Z,2.10
2022-09-01T13:35:44.511Z,2.20
2022-09-01T13:38:11.038Z,2.55
2022-09-01T13:40:37.669Z,2.53
2022-09-01T13:43:06.137Z,2.53
2022-09-01T13:45:33.698Z,1.80
2022-09-01T13:48:16.234Z,1.80
2022-09-01T13:53:31.993Z,2.05
2022-09-01T13:55:58.653Z,2.30
2022-09-01T13:58:25.170Z,2.50
2022-09-01T14:00:51.725Z,2.03
2022-09-01T14:03:22.157Z,2.08
2022-09-01T14:05:49.776Z,1.88
2022-09-01T14:08:19.664Z,2.10
2022-09-01T14:10:50.729Z,2.08
2022-09-01T14:15:44.624Z,1.90
2022-09-01T14:18:11.333Z,2.03
2022-09-01T14:20:41.628Z,1.63
2022-09-01T14:23:10.738Z,2.25
2022-09-01T14:25:42.157Z,2.30
2022-09-01T14:28:08.641Z,2.63
2022-09-01T14:30:35.158Z,2.83
2022-09-01T14:33:02.628Z,2.72
2022-09-01T14:35:31.999Z,2.92
2022-09-01T14:37:58.976Z,2.75
2022-09-01T14:40:26.041Z,2.80
2022-09-01T14:42:53.138Z,2.90
2022-09-01T14:45:25.373Z,2.60
2022-09-01T14:47:54.838Z,2.50
2022-09-01T14:50:23.263Z,2.50
2022-09-01T14:52:53.202Z,2.83
2022-09-01T14:55:21.983Z,2.50
2022-09-01T14:57:49.269Z,2.63
2022-09-01T15:00:17.253Z,3.10
2022-09-01T15:02:44.816Z,2.42
2022-09-01T15:05:12.800Z,2.55
2022-09-01T15:07:40.501Z,2.40
2022-09-01T15:10:10.089Z,2.55
2022-09-01T15:12:39.616Z,2.70
2022-09-01T15:15:07.874Z,2.65
2022-09-01T15:17:34.932Z,2.90
2022-09-01T15:20:21.824Z,2.53
2022-09-01T15:22:49.632Z,2.67
2022-09-01T15:25:16.845Z,2.80
2022-09-01T15:27:43.566Z,2.60
2022-09-01T15:30:17.820Z,2.38
2022-09-01T15:32:52.520Z,2.50
2022-09-01T15:35:20.756Z,2.55
2022-09-01T15:37:48.740Z,3.10
2022-09-01T15:40:16.762Z,2.90
2022-09-01T15:42:43.595Z,2.90
2022-09-01T15:45:17.187Z,2.90
2022-09-01T15:47:45.869Z,2.40
2022-09-01T15:50:21.962Z,2.40
2022-09-01T15:52:52.310Z,2.33
2022-09-01T15:55:22.550Z,2.67
2022-09-01T15:57:49.400Z,2.20
2022-09-01T16:00:17.757Z,2.00
2022-09-01T16:02:44.841Z,2.25
2022-09-01T16:05:12.574Z,2.15
2022-09-01T16:07:39.648Z,2.17
2022-09-01T16:10:11.827Z,2.47
2022-09-01T16:12:43.793Z,2.03
2022-09-01T16:15:13.777Z,2.20
2022-09-01T16:17:46.341Z,2.53
2022-09-01T16:20:20.290Z,2.05
2022-09-01T16:22:56.724Z,1.98
2022-09-01T16:25:29.703Z,2.20
2022-09-01T16:27:56.449Z,2.42
2022-09-01T16:30:27.825Z,2.22
2022-09-01T16:32:57.992Z,2.05
2022-09-01T16:35:44.696Z,2.35
2022-09-01T16:38:41.497Z,2.45
2022-09-01T16:41:30.548Z,2.40
2022-09-01T16:44:22.066Z,2.40
2022-09-01T16:49:48.989Z,2.47
2022-09-01T16:52:29.348Z,2.70
2022-09-01T16:55:13.128Z,2.40
2022-09-01T16:58:03.573Z,2.40
2022-09-01T17:00:57.919Z,2.67
2022-09-01T17:03:42.949Z,2.45
2022-09-01T17:06:25.454Z,2.05
2022-09-01T17:09:01.213Z,2.58
2022-09-01T17:11:48.327Z,2.33
2022-09-01T17:14:27.580Z,2.20
2022-09-01T17:17:09.120Z,2.33
2022-09-01T17:19:39.095Z,2.30
2022-09-01T17:22:10.536Z,2.45
2022-09-01T17:24:58.079Z,2.42
2022-09-01T17:27:53.302Z,2.70
2022-09-01T17:30:19.945Z,2.60
2022-09-01T17:33:17.566Z,2.60
2022-09-01T17:36:03.161Z,2.75
2022-09-01T17:38:54.177Z,2.72
2022-09-01T17:41:44.660Z,2.75
2022-09-01T17:44:22.823Z,2.55
2022-09-01T17:47:01.909Z,3.15
2022-09-01T17:49:33.194Z,2.70
2022-09-01T17:52:08.840Z,2.63
2022-09-01T17:55:19.285Z,2.92
2022-09-01T17:58:04.723Z,3.03
2022-09-01T18:00:40.090Z,3.25
2022-09-01T18:03:18.824Z,3.00
2022-09-01T18:05:53.534Z,3.15
2022-09-01T18:08:40.391Z,3.20
2022-09-01T18:11:12.821Z,3.47
2022-09-01T18:13:55.867Z,3.92
2022-09-01T18:16:30.951Z,3.10
2022-09-01T18:19:13.850Z,3.53
2022-09-01T18:21:49.510Z,3.40
2022-09-01T18:24:19.127Z,3.08
2022-09-01T18:26:49.625Z,3.28
2022-09-01T18:29:17.713Z,3.40
2022-09-01T18:31:56.935Z,3.58
2022-09-01T18:34:32.506Z,3.53
2022-09-01T18:37:39.445Z,3.75
2022-09-01T18:40:14.303Z,3.33
2022-09-01T18:43:05.692Z,3.90
2022-09-01T18:45:36.935Z,4.20
2022-09-01T18:48:40.216Z,4.05
2022-09-01T18:51:24.460Z,4.43
2022-09-01T18:54:09.907Z,4.22
2022-09-01T18:56:47.240Z,4.10
2022-09-01T18:59:34.823Z,3.80
2022-09-01T19:02:37.457Z,3.92
2022-09-01T19:05:25.073Z,3.60
2022-09-01T19:08:10.204Z,4.10
2022-09-01T19:10:43.850Z,4.13
2022-09-01T19:13:18.873Z,3.75
2022-09-01T19:15:57.069Z,4.32
2022-09-01T19:18:43.164Z,5.10
2022-09-01T19:21:32.691Z,4.07
2022-09-01T19:24:05.874Z,4.30
2022-09-01T19:26:39.093Z,4.10
2022-09-01T19:29:10.013Z,3.60
2022-09-01T19:31:42.338Z,4.45
2022-09-01T19:34:16.739Z,4.22
2022-09-01T19:36:56.923Z,4.20
2022-09-01T19:39:39.429Z,4.00
2022-09-01T19:42:25.316Z,3.92
2022-09-01T19:45:06.699Z,3.92
2022-09-01T19:47:36.884Z,4.22
2022-09-01T19:50:09.345Z,3.95
2022-09-01T19:52:49.964Z,4.45
2022-09-01T19:55:31.451Z,4.30
2022-09-01T19:58:13.783Z,4.50
2022-09-01T20:00:51.011Z,4.20
2022-09-01T20:03:40.109Z,4.65
2022-09-01T20:06:13.680Z,4.22
2022-09-01T20:08:46.541Z,4.13
2022-09-01T20:11:51.928Z,3.88
2022-09-01T20:14:30.628Z,4.32
2022-09-01T20:17:01.532Z,4.20
2022-09-01T20:19:52.228Z,4.30
2022-09-01T20:22:41.693Z,3.88
2022-09-01T20:25:13.868Z,4.65
2022-09-01T20:27:48.847Z,4.10
2022-09-01T20:30:24.865Z,4.85
2022-09-01T20:33:00.424Z,3.90
2022-09-01T20:35:48.719Z,4.60
2022-09-01T20:39:03.649Z,4.75
2022-09-01T20:41:41.808Z,4.75
2022-09-01T20:44:15.529Z,4.65
2022-09-01T20:46:41.999Z,4.70
2022-09-01T20:49:15.827Z,4.60
2022-09-01T20:51:55.662Z,5.53
2022-09-01T20:54:32.080Z,5.25
2022-09-01T20:57:13.660Z,5.03
2022-09-01T20:59:42.792Z,5.03
2022-09-01T21:02:26.494Z,5.22
2022-09-01T21:04:59.229Z,4.90
2022-09-01T21:07:35.288Z,5.40
2022-09-01T21:10:20.248Z,5.38
2022-09-01T21:13:08.728Z,4.95
2022-09-01T21:15:59.956Z,5.65
2022-09-01T21:18:51.567Z,4.82
2022-09-01T21:21:37.073Z,5.80
2022-09-01T21:24:04.860Z,5.43
2022-09-01T21:26:34.259Z,4.72
2022-09-01T21:29:17.181Z,5.47
2022-09-01T21:34:12.742Z,5.25
2022-09-01T21:36:42.773Z,5.70
2022-09-01T21:39:09.269Z,6.60
2022-09-01T21:41:35.737Z,5.35
2022-09-01T21:44:02.526Z,5.90
2022-09-01T21:46:29.170Z,6.47
2022-09-01T21:48:55.712Z,5.97
2022-09-01T21:51:22.180Z,5.70
2022-09-01T21:53:48.656Z,5.70
2022-09-01T21:56:15.286Z,5.85
2022-09-01T21:58:41.746Z,5.60
2022-09-01T22:01:08.355Z,5.82
2022-09-01T22:03:38.542Z,5.72
2022-09-01T22:06:05.657Z,5.93
2022-09-01T22:08:32.165Z,6.35
2022-09-01T22:10:58.848Z,6.13
2022-09-01T22:13:25.395Z,5.18
2022-09-01T22:15:53.832Z,5.35
2022-09-01T22:18:21.503Z,5.82
2022-09-01T22:20:48.653Z,5.72
2022-09-01T22:23:16.154Z,5.88
2022-09-01T22:25:45.805Z,5.68
2022-09-01T22:28:12.600Z,5.97
2022-09-01T22:30:50.860Z,5.97
2022-09-01T22:33:19.521Z,5.97
2022-09-01T22:35:49.210Z,5.93
2022-09-01T22:38:16.240Z,5.65
2022-09-01T22:40:51.576Z,6.07
2022-09-01T22:43:18.914Z,6.32
2022-09-01T22:45:47.903Z,5.70
2022-09-01T22:48:15.591Z,6.20
2022-09-01T22:50:44.220Z,5.97
2022-09-01T22:53:11.521Z,6.85
2022-09-01T22:55:39.756Z,6.15
2022-09-01T22:58:09.736Z,6.70
2022-09-01T23:00:36.665Z,5.53
2022-09-01T23:03:04.356Z,5.80
2022-09-01T23:05:31.585Z,5.75
2022-09-01T23:07:58.964Z,6.25
2022-09-01T23:10:26.084Z,6.50
2022-09-01T23:12:52.569Z,6.13
2022-09-01T23:15:19.121Z,6.70
2022-09-01T23:17:45.640Z,5.88
2022-09-01T23:20:15.865Z,6.35
2022-09-01T23:22:44.362Z,6.28
2022-09-01T23:25:13.241Z,5.90
2022-09-01T23:27:40.572Z,6.32
2022-09-01T23:30:09.337Z,5.57
2022-09-01T23:32:36.611Z,5.60
2022-09-01T23:35:04.124Z,5.57
2022-09-01T23:37:30.600Z,6.50
2022-09-01T23:39:57.392Z,5.72
2022-09-01T23:42:24.302Z,6.05
2022-09-01T23:44:50.816Z,6.32
2022-09-01T23:47:17.329Z,6.30
2022-09-01T23:49:43.839Z,5.45
2022-09-01T23:52:10.321Z,5.88
2022-09-01T23:54:36.809Z,5.82
2022-09-01T23:57:03.523Z,6.10
2022-09-01T23:59:29.969Z,6.18
